M I D A S
Marine Information and Data Acquisition System
Tripno 1184 of the Zeeleeuw from 2006-11-28 08:03:03 to 2006-11-28 14:25:56
Back to CruiseResearch ActivitiesStationsMapUnderway DataData graphs

EquipmentUnitsComment
TimeDGPSUTC
LatitudeDGPSDM.mWGS84
LongitudeDGPSDM.mWGS84
TemperatureSBE03/SBE38deg celciusITS90
ConductivitySBE21S/mITS90
SalinitySBE21 Practical Salinity Units
ChlorophylAChelsea fluorimeterg/lCalibrated in Aceton
Missing or incorrect values are displayed as -999
Sea surface data collected by the RV Zeeleeuw from 2006-11-28 07:55:09 to 2006-11-28 08:31:48
Time Latitude Longitude Temperature Conductivity Salinity ChlorophylA
2006-11-28 07:56:14 51°13.611 2°56.051 -999 0.057166 0.33726 -2.871232
2006-11-28 07:57:14 51°13.634 2°55.968 -999 0.057166 0.337275 -2.871232
2006-11-28 07:58:14 51°13.668 2°55.875 -999 0.057166 0.33729 -2.871232
2006-11-28 07:59:14 51°13.705 2°55.776 -999 0.057269 0.337938 -2.871232
2006-11-28 08:00:13 51°13.72 2°55.709 -999 0.057166 0.337341 -2.871232
2006-11-28 08:01:13 51°13.737 2°55.73 -999 0.057269 0.337989 -2.871232
2006-11-28 08:02:14 51°13.722 2°55.712 -999 0.057166 0.337341 -2.871232
2006-11-28 08:03:13 51°13.755 2°55.693 -999 0.057166 0.337363 -2.871232
2006-11-28 08:04:13 51°13.836 2°55.638 -999 0.057166 0.337355 -2.871232
2006-11-28 08:05:13 51°13.942 2°55.564 -999 0.057166 0.337363 -2.871232
2006-11-28 08:06:13 51°14.031 2°55.504 -999 0.057166 0.337384 -2.871232
2006-11-28 08:07:14 51°14.12 2°55.44 -999 0.057166 0.337377 -2.871232
2006-11-28 08:08:14 51°14.24 2°55.334 -999 0.057166 0.337392 -2.871232
2006-11-28 08:09:14 51°14.347 2°55.156 -999 0.057166 0.337399 -2.871232
2006-11-28 08:10:13 51°14.445 2°54.909 -999 0.057166 0.337399 -2.871232
2006-11-28 08:11:13 51°14.479 2°54.591 -999 0.057166 0.337406 -2.871232
2006-11-28 08:12:14 51°14.412 2°54.267 -999 0.057166 0.337406 -2.871232
2006-11-28 08:13:13 51°14.3 2°53.977 -999 0.057166 0.337406 -2.871232
2006-11-28 08:14:13 51°14.187 2°53.677 -999 0.057166 0.337428 -2.871232
2006-11-28 08:15:14 51°14.072 2°53.37 -999 -999 -999 -2.871232
2006-11-28 08:16:13 51°13.962 2°53.074 -999 0.057166 0.337465 -2.871232
2006-11-28 08:17:12 51°13.851 2°52.776 -999 0.057166 0.337479 -2.871232
2006-11-28 08:18:13 51°13.737 2°52.468 -999 0.057165 0.310272 -2.871232
2006-11-28 08:19:14 51°13.624 2°52.16 -999 -999 -999 -2.871232
2006-11-28 08:20:13 51°13.515 2°51.861 -999 0.05717 -999 -2.871232
2006-11-28 08:21:13 51°13.404 2°51.556 -999 -999 -999 -2.871232
2006-11-28 08:22:13 51°13.294 2°51.25 -999 0.057166 0.337596 -2.871232
2006-11-28 08:23:13 51°13.184 2°50.945 -999 0.057166 0.337618 -2.871232
2006-11-28 08:24:13 51°13.074 2°50.638 -999 0.057166 0.337648 -2.871232
2006-11-28 08:25:13 51°12.964 2°50.33 -999 -999 -999 -999
2006-11-28 08:26:13 51°12.854 2°50.022 -999 0.057166 0.337699 -2.871232
2006-11-28 08:27:13 51°12.744 2°49.714 -999 0.057166 0.337728 -2.871232
2006-11-28 08:28:13 51°12.635 2°49.407 -999 -999 -999 -2.871232
2006-11-28 08:29:14 51°12.525 2°49.093 -999 0.057166 0.337772 -2.871232
2006-11-28 08:30:12 51°12.418 2°48.795 -999 -999 -999 -999
2006-11-28 08:31:13 51°12.307 2°48.483 -999 -999 -999 -999